sensor_id;sensor_type;location;lat;lon;timestamp;temperature;humidity
20560;DHT22;10438;51.454;6.718;2022-12-11T00:01:29;0.30;99.90
20560;DHT22;10438;51.454;6.718;2022-12-11T00:03:55;0.30;99.90
20560;DHT22;10438;51.454;6.718;2022-12-11T00:06:22;0.30;99.90
20560;DHT22;10438;51.454;6.718;2022-12-11T00:08:53;0.30;99.90
20560;DHT22;10438;51.454;6.718;2022-12-11T00:11:19;0.30;99.90
20560;DHT22;10438;51.454;6.718;2022-12-11T00:13:45;0.30;99.90
20560;DHT22;10438;51.454;6.718;2022-12-11T00:16:11;0.20;99.90
20560;DHT22;10438;51.454;6.718;2022-12-11T00:18:36;0.30;99.90
20560;DHT22;10438;51.454;6.718;2022-12-11T00:21:04;0.30;99.90
20560;DHT22;10438;51.454;6.718;2022-12-11T00:23:30;0.30;99.90
20560;DHT22;10438;51.454;6.718;2022-12-11T00:25:55;0.30;99.90
20560;DHT22;10438;51.454;6.718;2022-12-11T00:28:21;0.30;99.90
20560;DHT22;10438;51.454;6.718;2022-12-11T00:30:47;0.30;99.90
20560;DHT22;10438;51.454;6.718;2022-12-11T00:33:13;0.30;99.90
20560;DHT22;10438;51.454;6.718;2022-12-11T00:35:44;0.30;99.90
20560;DHT22;10438;51.454;6.718;2022-12-11T00:38:15;0.20;99.90
20560;DHT22;10438;51.454;6.718;2022-12-11T00:40:40;0.30;99.90
20560;DHT22;10438;51.454;6.718;2022-12-11T00:43:06;0.20;99.90
20560;DHT22;10438;51.454;6.718;2022-12-11T00:45:35;0.20;99.90
20560;DHT22;10438;51.454;6.718;2022-12-11T00:48:01;0.20;99.90
20560;DHT22;10438;51.454;6.718;2022-12-11T00:50:26;0.20;99.90
20560;DHT22;10438;51.454;6.718;2022-12-11T00:52:52;0.30;99.90
20560;DHT22;10438;51.454;6.718;2022-12-11T00:55:17;0.30;99.90
20560;DHT22;10438;51.454;6.718;2022-12-11T00:57:43;0.30;99.90
20560;DHT22;10438;51.454;6.718;2022-12-11T01:00:09;0.40;99.90
20560;DHT22;10438;51.454;6.718;2022-12-11T01:02:34;0.40;99.90
20560;DHT22;10438;51.454;6.718;2022-12-11T01:05:00;0.40;99.90
20560;DHT22;10438;51.454;6.718;2022-12-11T01:07:26;0.30;99.90
20560;DHT22;10438;51.454;6.718;2022-12-11T01:09:51;0.40;99.90
20560;DHT22;10438;51.454;6.718;2022-12-11T01:12:35;0.30;99.90
20560;DHT22;10438;51.454;6.718;2022-12-11T01:15:01;0.40;99.90
20560;DHT22;10438;51.454;6.718;2022-12-11T01:17:27;0.40;99.90
20560;DHT22;10438;51.454;6.718;2022-12-11T01:19:53;0.40;99.90
20560;DHT22;10438;51.454;6.718;2022-12-11T01:22:19;0.30;99.90
20560;DHT22;10438;51.454;6.718;2022-12-11T01:24:44;0.30;99.90
20560;DHT22;10438;51.454;6.718;2022-12-11T01:27:10;0.30;99.90
20560;DHT22;10438;51.454;6.718;2022-12-11T01:29:35;0.30;99.90
20560;DHT22;10438;51.454;6.718;2022-12-11T01:32:01;0.30;99.90
20560;DHT22;10438;51.454;6.718;2022-12-11T01:34:30;0.30;99.90
20560;DHT22;10438;51.454;6.718;2022-12-11T01:36:56;0.30;99.90
20560;DHT22;10438;51.454;6.718;2022-12-11T01:39:22;0.30;99.90
20560;DHT22;10438;51.454;6.718;2022-12-11T01:41:47;0.30;99.90
20560;DHT22;10438;51.454;6.718;2022-12-11T01:46:38;0.30;99.90
20560;DHT22;10438;51.454;6.718;2022-12-11T01:49:07;0.30;99.90
20560;DHT22;10438;51.454;6.718;2022-12-11T01:51:39;0.30;99.90
20560;DHT22;10438;51.454;6.718;2022-12-11T01:54:08;0.20;99.90
20560;DHT22;10438;51.454;6.718;2022-12-11T01:56:36;0.30;99.90
20560;DHT22;10438;51.454;6.718;2022-12-11T01:59:04;0.30;99.90
20560;DHT22;10438;51.454;6.718;2022-12-11T02:01:48;0.30;99.90
20560;DHT22;10438;51.454;6.718;2022-12-11T02:04:15;0.30;99.90
20560;DHT22;10438;51.454;6.718;2022-12-11T02:06:44;0.30;99.90
20560;DHT22;10438;51.454;6.718;2022-12-11T02:09:16;0.40;99.90
20560;DHT22;10438;51.454;6.718;2022-12-11T02:23:31;0.40;99.90
20560;DHT22;10438;51.454;6.718;2022-12-11T02:26:22;0.40;99.90
20560;DHT22;10438;51.454;6.718;2022-12-11T02:28:57;0.40;99.90
20560;DHT22;10438;51.454;6.718;2022-12-11T02:31:44;0.40;99.90
20560;DHT22;10438;51.454;6.718;2022-12-11T02:37:19;0.40;99.90
20560;DHT22;10438;51.454;6.718;2022-12-11T02:39:47;0.40;99.90
20560;DHT22;10438;51.454;6.718;2022-12-11T02:42:14;0.40;99.90
20560;DHT22;10438;51.454;6.718;2022-12-11T02:44:44;0.40;99.90
20560;DHT22;10438;51.454;6.718;2022-12-11T02:47:14;0.40;99.90
20560;DHT22;10438;51.454;6.718;2022-12-11T02:49:42;0.40;99.90
20560;DHT22;10438;51.454;6.718;2022-12-11T02:52:10;0.40;99.90
20560;DHT22;10438;51.454;6.718;2022-12-11T02:54:38;0.50;99.90
20560;DHT22;10438;51.454;6.718;2022-12-11T02:57:10;0.50;99.90
20560;DHT22;10438;51.454;6.718;2022-12-11T02:59:39;0.50;99.90
20560;DHT22;10438;51.454;6.718;2022-12-11T03:02:05;0.50;99.90
20560;DHT22;10438;51.454;6.718;2022-12-11T03:04:33;0.50;99.90
20560;DHT22;10438;51.454;6.718;2022-12-11T03:07:03;0.50;99.90
20560;DHT22;10438;51.454;6.718;2022-12-11T03:09:38;0.50;99.90
20560;DHT22;10438;51.454;6.718;2022-12-11T03:12:05;0.50;99.90
20560;DHT22;10438;51.454;6.718;2022-12-11T03:14:31;0.50;99.90
20560;DHT22;10438;51.454;6.718;2022-12-11T03:17:11;0.60;99.90
20560;DHT22;10438;51.454;6.718;2022-12-11T03:20:11;0.60;99.90
20560;DHT22;10438;51.454;6.718;2022-12-11T03:22:44;0.60;99.90
20560;DHT22;10438;51.454;6.718;2022-12-11T03:25:22;0.60;99.90
20560;DHT22;10438;51.454;6.718;2022-12-11T03:27:59;0.60;99.90
20560;DHT22;10438;51.454;6.718;2022-12-11T03:30:28;0.70;99.90
20560;DHT22;10438;51.454;6.718;2022-12-11T03:33:02;0.70;99.90
20560;DHT22;10438;51.454;6.718;2022-12-11T03:35:39;0.70;99.90
20560;DHT22;10438;51.454;6.718;2022-12-11T03:38:09;0.70;99.90
20560;DHT22;10438;51.454;6.718;2022-12-11T03:40:36;0.70;99.90
20560;DHT22;10438;51.454;6.718;2022-12-11T03:43:04;0.70;99.90
20560;DHT22;10438;51.454;6.718;2022-12-11T03:45:31;0.70;99.90
20560;DHT22;10438;51.454;6.718;2022-12-11T03:47:59;0.70;99.90
20560;DHT22;10438;51.454;6.718;2022-12-11T03:50:28;0.80;99.90
20560;DHT22;10438;51.454;6.718;2022-12-11T03:52:55;0.80;99.90
20560;DHT22;10438;51.454;6.718;2022-12-11T03:55:22;0.80;99.90
20560;DHT22;10438;51.454;6.718;2022-12-11T03:57:47;0.80;99.90
20560;DHT22;10438;51.454;6.718;2022-12-11T04:00:16;0.80;99.90
20560;DHT22;10438;51.454;6.718;2022-12-11T04:02:43;0.80;99.90
20560;DHT22;10438;51.454;6.718;2022-12-11T04:05:09;0.80;99.90
20560;DHT22;10438;51.454;6.718;2022-12-11T04:07:35;0.80;99.90
20560;DHT22;10438;51.454;6.718;2022-12-11T04:10:01;0.80;99.90
20560;DHT22;10438;51.454;6.718;2022-12-11T04:12:27;0.80;99.90
20560;DHT22;10438;51.454;6.718;2022-12-11T04:14:53;0.80;99.90
20560;DHT22;10438;51.454;6.718;2022-12-11T04:17:32;0.80;99.90
20560;DHT22;10438;51.454;6.718;2022-12-11T04:20:18;0.90;99.90
20560;DHT22;10438;51.454;6.718;2022-12-11T04:23:04;0.90;99.90
20560;DHT22;10438;51.454;6.718;2022-12-11T04:25:48;0.90;99.90
20560;DHT22;10438;51.454;6.718;2022-12-11T04:28:13;0.90;99.90
20560;DHT22;10438;51.454;6.718;2022-12-11T04:30:39;0.90;99.90
20560;DHT22;10438;51.454;6.718;2022-12-11T04:33:05;0.90;99.90
20560;DHT22;10438;51.454;6.718;2022-12-11T04:35:31;0.90;99.90
20560;DHT22;10438;51.454;6.718;2022-12-11T04:37:57;0.90;99.90
20560;DHT22;10438;51.454;6.718;2022-12-11T04:40:23;0.90;99.90
20560;DHT22;10438;51.454;6.718;2022-12-11T04:42:49;1.00;99.90
20560;DHT22;10438;51.454;6.718;2022-12-11T04:45:14;1.00;99.90
20560;DHT22;10438;51.454;6.718;2022-12-11T04:47:40;0.90;99.90
20560;DHT22;10438;51.454;6.718;2022-12-11T04:50:09;0.90;99.90
20560;DHT22;10438;51.454;6.718;2022-12-11T04:52:35;0.90;99.90
20560;DHT22;10438;51.454;6.718;2022-12-11T04:55:02;0.90;99.90
20560;DHT22;10438;51.454;6.718;2022-12-11T04:57:27;0.90;99.90
20560;DHT22;10438;51.454;6.718;2022-12-11T04:59:53;0.90;99.90
20560;DHT22;10438;51.454;6.718;2022-12-11T05:02:18;0.90;99.90
20560;DHT22;10438;51.454;6.718;2022-12-11T05:04:44;0.90;99.90
20560;DHT22;10438;51.454;6.718;2022-12-11T05:07:09;0.90;99.90
20560;DHT22;10438;51.454;6.718;2022-12-11T05:09:35;1.00;99.90
20560;DHT22;10438;51.454;6.718;2022-12-11T05:12:01;0.90;99.90
20560;DHT22;10438;51.454;6.718;2022-12-11T05:14:27;0.90;99.90
20560;DHT22;10438;51.454;6.718;2022-12-11T05:16:56;0.90;99.90
20560;DHT22;10438;51.454;6.718;2022-12-11T05:19:22;0.90;99.90
20560;DHT22;10438;51.454;6.718;2022-12-11T05:21:48;0.90;99.90
20560;DHT22;10438;51.454;6.718;2022-12-11T05:24:13;1.00;99.90
20560;DHT22;10438;51.454;6.718;2022-12-11T05:26:39;1.00;99.90
20560;DHT22;10438;51.454;6.718;2022-12-11T05:29:04;0.90;99.90
20560;DHT22;10438;51.454;6.718;2022-12-11T05:31:30;0.90;99.90
20560;DHT22;10438;51.454;6.718;2022-12-11T05:33:55;0.90;99.90
20560;DHT22;10438;51.454;6.718;2022-12-11T05:36:22;0.90;99.90
20560;DHT22;10438;51.454;6.718;2022-12-11T05:38:48;1.00;99.90
20560;DHT22;10438;51.454;6.718;2022-12-11T05:41:16;0.90;99.90
20560;DHT22;10438;51.454;6.718;2022-12-11T05:43:42;0.90;99.90
20560;DHT22;10438;51.454;6.718;2022-12-11T05:48:36;0.90;99.90
20560;DHT22;10438;51.454;6.718;2022-12-11T05:51:02;0.90;99.90
20560;DHT22;10438;51.454;6.718;2022-12-11T05:53:29;0.90;99.90
20560;DHT22;10438;51.454;6.718;2022-12-11T05:56:00;0.90;99.90
20560;DHT22;10438;51.454;6.718;2022-12-11T05:58:27;1.00;99.90
20560;DHT22;10438;51.454;6.718;2022-12-11T06:00:53;0.90;99.90
20560;DHT22;10438;51.454;6.718;2022-12-11T06:03:18;0.90;99.90
20560;DHT22;10438;51.454;6.718;2022-12-11T06:05:44;0.90;99.90
20560;DHT22;10438;51.454;6.718;2022-12-11T06:08:09;0.90;99.90
20560;DHT22;10438;51.454;6.718;2022-12-11T06:10:35;0.90;99.90
20560;DHT22;10438;51.454;6.718;2022-12-11T06:13:00;1.00;99.90
20560;DHT22;10438;51.454;6.718;2022-12-11T06:15:26;1.00;99.90
20560;DHT22;10438;51.454;6.718;2022-12-11T06:17:52;1.00;99.90
20560;DHT22;10438;51.454;6.718;2022-12-11T06:20:17;0.90;99.90
20560;DHT22;10438;51.454;6.718;2022-12-11T06:22:43;0.90;99.90
20560;DHT22;10438;51.454;6.718;2022-12-11T06:25:08;0.90;99.90
20560;DHT22;10438;51.454;6.718;2022-12-11T06:27:34;0.90;99.90
20560;DHT22;10438;51.454;6.718;2022-12-11T06:29:59;1.00;99.90
20560;DHT22;10438;51.454;6.718;2022-12-11T06:32:25;1.00;99.90
20560;DHT22;10438;51.454;6.718;2022-12-11T06:34:51;0.90;99.90
20560;DHT22;10438;51.454;6.718;2022-12-11T06:37:16;1.00;99.90
20560;DHT22;10438;51.454;6.718;2022-12-11T06:39:42;1.00;99.90
20560;DHT22;10438;51.454;6.718;2022-12-11T06:42:07;1.00;99.90
20560;DHT22;10438;51.454;6.718;2022-12-11T06:44:33;1.00;99.90
20560;DHT22;10438;51.454;6.718;2022-12-11T06:46:58;1.00;99.90
20560;DHT22;10438;51.454;6.718;2022-12-11T06:49:24;1.00;99.90
20560;DHT22;10438;51.454;6.718;2022-12-11T06:51:49;1.00;99.90
20560;DHT22;10438;51.454;6.718;2022-12-11T06:54:15;1.00;99.90
20560;DHT22;10438;51.454;6.718;2022-12-11T06:56:40;1.00;99.90
20560;DHT22;10438;51.454;6.718;2022-12-11T06:59:10;1.00;99.90
20560;DHT22;10438;51.454;6.718;2022-12-11T07:01:35;1.00;99.90
20560;DHT22;10438;51.454;6.718;2022-12-11T07:04:01;1.00;99.90
20560;DHT22;10438;51.454;6.718;2022-12-11T07:06:27;1.00;99.90
20560;DHT22;10438;51.454;6.718;2022-12-11T07:08:53;1.00;99.90
20560;DHT22;10438;51.454;6.718;2022-12-11T07:11:20;1.00;99.90
20560;DHT22;10438;51.454;6.718;2022-12-11T07:13:46;1.00;99.90
20560;DHT22;10438;51.454;6.718;2022-12-11T07:16:13;1.00;99.90
20560;DHT22;10438;51.454;6.718;2022-12-11T07:18:40;1.00;99.90
20560;DHT22;10438;51.454;6.718;2022-12-11T07:21:06;0.90;99.90
20560;DHT22;10438;51.454;6.718;2022-12-11T07:23:33;1.00;99.90
20560;DHT22;10438;51.454;6.718;2022-12-11T07:26:03;1.00;99.90
20560;DHT22;10438;51.454;6.718;2022-12-11T07:28:29;0.90;99.90
20560;DHT22;10438;51.454;6.718;2022-12-11T07:30:54;0.90;99.90
20560;DHT22;10438;51.454;6.718;2022-12-11T07:33:19;1.00;99.90
20560;DHT22;10438;51.454;6.718;2022-12-11T07:35:45;1.00;99.90
20560;DHT22;10438;51.454;6.718;2022-12-11T07:38:11;0.90;99.90
20560;DHT22;10438;51.454;6.718;2022-12-11T07:40:36;0.90;99.90
20560;DHT22;10438;51.454;6.718;2022-12-11T07:43:02;1.00;99.90
20560;DHT22;10438;51.454;6.718;2022-12-11T07:45:27;1.00;99.90
20560;DHT22;10438;51.454;6.718;2022-12-11T07:47:53;0.90;99.90
20560;DHT22;10438;51.454;6.718;2022-12-11T07:50:19;1.00;99.90
20560;DHT22;10438;51.454;6.718;2022-12-11T07:52:44;1.00;99.90
20560;DHT22;10438;51.454;6.718;2022-12-11T07:55:10;1.00;99.90
20560;DHT22;10438;51.454;6.718;2022-12-11T07:57:36;0.90;99.90
20560;DHT22;10438;51.454;6.718;2022-12-11T08:00:03;1.00;99.90
20560;DHT22;10438;51.454;6.718;2022-12-11T08:02:28;1.00;99.90
20560;DHT22;10438;51.454;6.718;2022-12-11T08:04:54;1.00;99.90
20560;DHT22;10438;51.454;6.718;2022-12-11T08:07:19;1.00;99.90
20560;DHT22;10438;51.454;6.718;2022-12-11T08:09:45;1.00;99.90
20560;DHT22;10438;51.454;6.718;2022-12-11T08:12:12;1.00;99.90
20560;DHT22;10438;51.454;6.718;2022-12-11T08:14:37;1.10;99.90
20560;DHT22;10438;51.454;6.718;2022-12-11T08:17:03;1.10;99.90
20560;DHT22;10438;51.454;6.718;2022-12-11T08:19:28;1.10;99.90
20560;DHT22;10438;51.454;6.718;2022-12-11T08:21:54;1.10;99.90
20560;DHT22;10438;51.454;6.718;2022-12-11T08:24:19;1.10;99.90
20560;DHT22;10438;51.454;6.718;2022-12-11T08:26:46;1.10;99.90
20560;DHT22;10438;51.454;6.718;2022-12-11T08:29:11;1.10;99.90
20560;DHT22;10438;51.454;6.718;2022-12-11T08:31:38;1.10;99.90
20560;DHT22;10438;51.454;6.718;2022-12-11T08:34:04;1.10;99.90
20560;DHT22;10438;51.454;6.718;2022-12-11T08:36:29;1.10;99.90
20560;DHT22;10438;51.454;6.718;2022-12-11T08:38:55;1.10;99.90
20560;DHT22;10438;51.454;6.718;2022-12-11T08:41:24;1.10;99.90
20560;DHT22;10438;51.454;6.718;2022-12-11T08:43:50;1.10;99.90
20560;DHT22;10438;51.454;6.718;2022-12-11T08:46:21;1.10;99.90
20560;DHT22;10438;51.454;6.718;2022-12-11T08:48:48;1.10;99.90
20560;DHT22;10438;51.454;6.718;2022-12-11T08:51:16;1.10;99.90
20560;DHT22;10438;51.454;6.718;2022-12-11T08:53:42;1.10;99.90
20560;DHT22;10438;51.454;6.718;2022-12-11T08:56:13;1.10;99.90
20560;DHT22;10438;51.454;6.718;2022-12-11T08:58:39;1.10;99.90
20560;DHT22;10438;51.454;6.718;2022-12-11T09:01:10;1.10;99.90
20560;DHT22;10438;51.454;6.718;2022-12-11T09:03:37;1.10;99.90
20560;DHT22;10438;51.454;6.718;2022-12-11T09:06:07;1.10;99.90
20560;DHT22;10438;51.454;6.718;2022-12-11T09:08:34;1.10;99.90
20560;DHT22;10438;51.454;6.718;2022-12-11T09:11:10;1.10;99.90
20560;DHT22;10438;51.454;6.718;2022-12-11T09:13:36;1.10;99.90
20560;DHT22;10438;51.454;6.718;2022-12-11T09:16:03;1.10;99.90
20560;DHT22;10438;51.454;6.718;2022-12-11T09:18:29;1.10;99.90
20560;DHT22;10438;51.454;6.718;2022-12-11T09:21:03;1.10;99.90
20560;DHT22;10438;51.454;6.718;2022-12-11T09:23:29;1.10;99.90
20560;DHT22;10438;51.454;6.718;2022-12-11T09:25:56;1.10;99.90
20560;DHT22;10438;51.454;6.718;2022-12-11T09:28:21;1.20;99.90
20560;DHT22;10438;51.454;6.718;2022-12-11T09:30:47;1.20;99.90
20560;DHT22;10438;51.454;6.718;2022-12-11T09:33:12;1.10;99.90
20560;DHT22;10438;51.454;6.718;2022-12-11T09:35:38;1.20;99.90
20560;DHT22;10438;51.454;6.718;2022-12-11T09:38:03;1.20;99.90
20560;DHT22;10438;51.454;6.718;2022-12-11T09:40:30;1.20;99.90
20560;DHT22;10438;51.454;6.718;2022-12-11T09:43:04;1.30;99.90
20560;DHT22;10438;51.454;6.718;2022-12-11T09:45:31;1.30;99.90
20560;DHT22;10438;51.454;6.718;2022-12-11T09:47:59;1.20;99.90
20560;DHT22;10438;51.454;6.718;2022-12-11T09:50:28;1.20;99.90
20560;DHT22;10438;51.454;6.718;2022-12-11T09:55:22;1.10;99.90
20560;DHT22;10438;51.454;6.718;2022-12-11T09:58:17;1.10;99.90
20560;DHT22;10438;51.454;6.718;2022-12-11T10:01:11;1.10;99.90
20560;DHT22;10438;51.454;6.718;2022-12-11T10:06:35;1.20;99.90
20560;DHT22;10438;51.454;6.718;2022-12-11T10:17:14;1.30;99.90
20560;DHT22;10438;51.454;6.718;2022-12-11T10:19:41;1.20;99.90
20560;DHT22;10438;51.454;6.718;2022-12-11T10:22:23;1.20;99.90
20560;DHT22;10438;51.454;6.718;2022-12-11T10:24:54;1.20;99.90
20560;DHT22;10438;51.454;6.718;2022-12-11T10:27:24;1.20;99.90
20560;DHT22;10438;51.454;6.718;2022-12-11T10:35:41;1.20;99.90
20560;DHT22;10438;51.454;6.718;2022-12-11T10:38:23;1.20;99.90
20560;DHT22;10438;51.454;6.718;2022-12-11T10:41:00;1.20;99.90
20560;DHT22;10438;51.454;6.718;2022-12-11T10:43:50;1.30;99.90
20560;DHT22;10438;51.454;6.718;2022-12-11T10:46:25;1.30;99.90
20560;DHT22;10438;51.454;6.718;2022-12-11T10:49:00;1.30;99.90
20560;DHT22;10438;51.454;6.718;2022-12-11T10:51:33;1.20;99.90
20560;DHT22;10438;51.454;6.718;2022-12-11T10:54:16;1.30;99.90
20560;DHT22;10438;51.454;6.718;2022-12-11T10:56:46;1.30;99.90
20560;DHT22;10438;51.454;6.718;2022-12-11T10:59:23;1.30;99.90
20560;DHT22;10438;51.454;6.718;2022-12-11T11:01:50;1.30;99.90
20560;DHT22;10438;51.454;6.718;2022-12-11T11:04:25;1.30;99.90
20560;DHT22;10438;51.454;6.718;2022-12-11T11:07:07;1.40;99.90
20560;DHT22;10438;51.454;6.718;2022-12-11T11:09:35;1.30;99.90
20560;DHT22;10438;51.454;6.718;2022-12-11T11:12:01;1.40;99.90
20560;DHT22;10438;51.454;6.718;2022-12-11T11:14:27;1.40;99.90
20560;DHT22;10438;51.454;6.718;2022-12-11T11:16:56;1.40;99.90
20560;DHT22;10438;51.454;6.718;2022-12-11T11:19:31;1.40;99.90
20560;DHT22;10438;51.454;6.718;2022-12-11T11:22:00;1.40;99.90
20560;DHT22;10438;51.454;6.718;2022-12-11T11:24:43;1.50;99.90
20560;DHT22;10438;51.454;6.718;2022-12-11T11:30:04;1.40;99.90
20560;DHT22;10438;51.454;6.718;2022-12-11T11:32:33;1.30;99.90
20560;DHT22;10438;51.454;6.718;2022-12-11T11:37:41;1.40;99.90
20560;DHT22;10438;51.454;6.718;2022-12-11T11:40:32;1.40;99.90
20560;DHT22;10438;51.454;6.718;2022-12-11T11:45:51;1.40;99.90
20560;DHT22;10438;51.454;6.718;2022-12-11T11:50:55;1.40;99.90
20560;DHT22;10438;51.454;6.718;2022-12-11T11:53:32;1.40;99.90
20560;DHT22;10438;51.454;6.718;2022-12-11T11:58:42;1.30;99.90
20560;DHT22;10438;51.454;6.718;2022-12-11T12:01:14;1.30;99.90
20560;DHT22;10438;51.454;6.718;2022-12-11T12:03:40;1.40;99.90
20560;DHT22;10438;51.454;6.718;2022-12-11T12:06:30;1.50;99.90
20560;DHT22;10438;51.454;6.718;2022-12-11T12:11:56;1.40;99.90
20560;DHT22;10438;51.454;6.718;2022-12-11T12:23:24;1.30;99.90
20560;DHT22;10438;51.454;6.718;2022-12-11T12:26:13;1.30;99.90
20560;DHT22;10438;51.454;6.718;2022-12-11T12:31:23;1.30;99.90
20560;DHT22;10438;51.454;6.718;2022-12-11T12:37:10;1.30;99.90
20560;DHT22;10438;51.454;6.718;2022-12-11T12:39:55;1.20;99.90
20560;DHT22;10438;51.454;6.718;2022-12-11T12:45:47;1.30;99.90
20560;DHT22;10438;51.454;6.718;2022-12-11T12:48:15;1.40;99.90
20560;DHT22;10438;51.454;6.718;2022-12-11T12:50:43;1.30;99.90
20560;DHT22;10438;51.454;6.718;2022-12-11T12:53:18;1.30;99.90
20560;DHT22;10438;51.454;6.718;2022-12-11T12:55:45;1.40;99.90
20560;DHT22;10438;51.454;6.718;2022-12-11T12:58:26;1.40;99.90
20560;DHT22;10438;51.454;6.718;2022-12-11T13:00:52;1.30;99.90
20560;DHT22;10438;51.454;6.718;2022-12-11T13:03:23;1.30;99.90
20560;DHT22;10438;51.454;6.718;2022-12-11T13:11:11;1.30;99.90
20560;DHT22;10438;51.454;6.718;2022-12-11T13:13:41;1.30;99.90
20560;DHT22;10438;51.454;6.718;2022-12-11T13:18:45;1.30;99.90
20560;DHT22;10438;51.454;6.718;2022-12-11T13:21:38;1.30;99.90
20560;DHT22;10438;51.454;6.718;2022-12-11T13:26:46;1.40;99.90
20560;DHT22;10438;51.454;6.718;2022-12-11T13:29:33;1.30;99.90
20560;DHT22;10438;51.454;6.718;2022-12-11T13:34:39;1.10;99.90
20560;DHT22;10438;51.454;6.718;2022-12-11T13:37:05;1.20;99.90
20560;DHT22;10438;51.454;6.718;2022-12-11T13:39:34;1.20;99.90
20560;DHT22;10438;51.454;6.718;2022-12-11T13:42:04;1.20;99.90
20560;DHT22;10438;51.454;6.718;2022-12-11T13:44:35;1.30;99.90
20560;DHT22;10438;51.454;6.718;2022-12-11T13:47:05;1.20;99.90
20560;DHT22;10438;51.454;6.718;2022-12-11T13:49:36;1.20;99.90
20560;DHT22;10438;51.454;6.718;2022-12-11T13:52:04;1.20;99.90
20560;DHT22;10438;51.454;6.718;2022-12-11T13:54:32;1.20;99.90
20560;DHT22;10438;51.454;6.718;2022-12-11T13:59:37;1.20;99.90
20560;DHT22;10438;51.454;6.718;2022-12-11T14:02:20;1.30;99.90
20560;DHT22;10438;51.454;6.718;2022-12-11T14:04:48;1.30;99.90
20560;DHT22;10438;51.454;6.718;2022-12-11T14:07:22;1.40;99.90
20560;DHT22;10438;51.454;6.718;2022-12-11T14:09:49;1.40;99.90
20560;DHT22;10438;51.454;6.718;2022-12-11T14:12:18;1.30;99.90
20560;DHT22;10438;51.454;6.718;2022-12-11T14:14:53;1.30;99.90
20560;DHT22;10438;51.454;6.718;2022-12-11T14:17:30;1.30;99.90
20560;DHT22;10438;51.454;6.718;2022-12-11T14:19:59;1.30;99.90
20560;DHT22;10438;51.454;6.718;2022-12-11T14:22:27;1.30;99.90
20560;DHT22;10438;51.454;6.718;2022-12-11T14:24:56;1.30;99.90
20560;DHT22;10438;51.454;6.718;2022-12-11T14:27:22;1.30;99.90
20560;DHT22;10438;51.454;6.718;2022-12-11T14:29:48;1.30;99.90
20560;DHT22;10438;51.454;6.718;2022-12-11T14:32:34;1.30;99.90
20560;DHT22;10438;51.454;6.718;2022-12-11T14:35:03;1.30;99.90
20560;DHT22;10438;51.454;6.718;2022-12-11T14:37:30;1.30;99.90
20560;DHT22;10438;51.454;6.718;2022-12-11T14:40:07;1.30;99.90
20560;DHT22;10438;51.454;6.718;2022-12-11T14:42:37;1.30;99.90
20560;DHT22;10438;51.454;6.718;2022-12-11T14:45:11;1.30;99.90
20560;DHT22;10438;51.454;6.718;2022-12-11T14:47:42;1.30;99.90
20560;DHT22;10438;51.454;6.718;2022-12-11T14:51:00;1.20;99.90
20560;DHT22;10438;51.454;6.718;2022-12-11T14:53:18;1.20;99.90
20560;DHT22;10438;51.454;6.718;2022-12-11T14:55:47;1.20;99.90
20560;DHT22;10438;51.454;6.718;2022-12-11T14:58:18;1.20;99.90
20560;DHT22;10438;51.454;6.718;2022-12-11T15:00:56;1.20;99.90
20560;DHT22;10438;51.454;6.718;2022-12-11T15:03:23;1.20;99.90
20560;DHT22;10438;51.454;6.718;2022-12-11T15:05:55;1.20;99.90
20560;DHT22;10438;51.454;6.718;2022-12-11T15:08:26;1.10;99.90
20560;DHT22;10438;51.454;6.718;2022-12-11T15:13:26;1.10;99.90
20560;DHT22;10438;51.454;6.718;2022-12-11T15:15:52;1.10;99.90
20560;DHT22;10438;51.454;6.718;2022-12-11T15:18:23;1.10;99.90
20560;DHT22;10438;51.454;6.718;2022-12-11T15:20:50;1.10;99.90
20560;DHT22;10438;51.454;6.718;2022-12-11T15:23:17;1.10;99.90
20560;DHT22;10438;51.454;6.718;2022-12-11T15:25:52;1.20;99.90
20560;DHT22;10438;51.454;6.718;2022-12-11T15:28:32;1.10;99.90
20560;DHT22;10438;51.454;6.718;2022-12-11T15:31:00;1.10;99.90
20560;DHT22;10438;51.454;6.718;2022-12-11T15:33:26;1.10;99.90
20560;DHT22;10438;51.454;6.718;2022-12-11T15:36:04;1.10;99.90
20560;DHT22;10438;51.454;6.718;2022-12-11T15:38:35;1.00;99.90
20560;DHT22;10438;51.454;6.718;2022-12-11T15:41:03;1.10;99.90
20560;DHT22;10438;51.454;6.718;2022-12-11T15:43:31;1.10;99.90
20560;DHT22;10438;51.454;6.718;2022-12-11T15:46:00;1.10;99.90
20560;DHT22;10438;51.454;6.718;2022-12-11T15:48:26;1.10;99.90
20560;DHT22;10438;51.454;6.718;2022-12-11T15:50:51;1.10;99.90
20560;DHT22;10438;51.454;6.718;2022-12-11T15:53:17;1.10;99.90
20560;DHT22;10438;51.454;6.718;2022-12-11T15:55:43;1.10;99.90
20560;DHT22;10438;51.454;6.718;2022-12-11T15:58:14;1.20;99.90
20560;DHT22;10438;51.454;6.718;2022-12-11T16:00:40;1.10;99.90
20560;DHT22;10438;51.454;6.718;2022-12-11T16:03:05;1.10;99.90
20560;DHT22;10438;51.454;6.718;2022-12-11T16:05:31;1.20;99.90
20560;DHT22;10438;51.454;6.718;2022-12-11T16:07:56;1.20;99.90
20560;DHT22;10438;51.454;6.718;2022-12-11T16:10:25;1.20;99.90
20560;DHT22;10438;51.454;6.718;2022-12-11T16:12:51;1.10;99.90
20560;DHT22;10438;51.454;6.718;2022-12-11T16:15:17;1.20;99.90
20560;DHT22;10438;51.454;6.718;2022-12-11T16:17:43;1.20;99.90
20560;DHT22;10438;51.454;6.718;2022-12-11T16:20:09;1.20;99.90
20560;DHT22;10438;51.454;6.718;2022-12-11T16:22:35;1.20;99.90
20560;DHT22;10438;51.454;6.718;2022-12-11T16:25:01;1.20;99.90
20560;DHT22;10438;51.454;6.718;2022-12-11T16:27:27;1.20;99.90
20560;DHT22;10438;51.454;6.718;2022-12-11T16:29:52;1.20;99.90
20560;DHT22;10438;51.454;6.718;2022-12-11T16:32:18;1.20;99.90
20560;DHT22;10438;51.454;6.718;2022-12-11T16:34:43;1.20;99.90
20560;DHT22;10438;51.454;6.718;2022-12-11T16:37:09;1.20;99.90
20560;DHT22;10438;51.454;6.718;2022-12-11T16:39:36;1.20;99.90
20560;DHT22;10438;51.454;6.718;2022-12-11T16:42:03;1.20;99.90
20560;DHT22;10438;51.454;6.718;2022-12-11T16:44:28;1.20;99.90
20560;DHT22;10438;51.454;6.718;2022-12-11T16:46:54;1.20;99.90
20560;DHT22;10438;51.454;6.718;2022-12-11T16:49:20;1.20;99.90
20560;DHT22;10438;51.454;6.718;2022-12-11T16:51:46;1.20;99.90
20560;DHT22;10438;51.454;6.718;2022-12-11T16:54:13;1.10;99.90
20560;DHT22;10438;51.454;6.718;2022-12-11T16:56:39;1.10;99.90
20560;DHT22;10438;51.454;6.718;2022-12-11T16:59:05;1.10;99.90
20560;DHT22;10438;51.454;6.718;2022-12-11T17:01:31;1.10;99.90
20560;DHT22;10438;51.454;6.718;2022-12-11T17:03:56;1.20;99.90
20560;DHT22;10438;51.454;6.718;2022-12-11T17:06:23;1.10;99.90
20560;DHT22;10438;51.454;6.718;2022-12-11T17:08:49;1.10;99.90
20560;DHT22;10438;51.454;6.718;2022-12-11T17:11:19;1.20;99.90
20560;DHT22;10438;51.454;6.718;2022-12-11T17:13:46;1.20;99.90
20560;DHT22;10438;51.454;6.718;2022-12-11T17:16:14;1.10;99.90
20560;DHT22;10438;51.454;6.718;2022-12-11T17:18:41;1.10;99.90
20560;DHT22;10438;51.454;6.718;2022-12-11T17:21:10;1.10;99.90
20560;DHT22;10438;51.454;6.718;2022-12-11T17:23:36;1.00;99.90
20560;DHT22;10438;51.454;6.718;2022-12-11T17:26:02;1.00;99.90
20560;DHT22;10438;51.454;6.718;2022-12-11T17:28:29;1.00;99.90